Data for 06/12/2007

Time Sea-Level Adjusted Pressure Absolute Pressure Temperature Relative Humidity Dew Point   
(mb) (inHg) (mb) (inHg) (C) (F) (%) (C) (F)
00:05 1017 30.03 846 24.98 12.2 54 63 5.3 41.6
00:10 1017 30.03 846 24.98 12.5 54.4 62 5.3 41.6
00:15 1017 30.03 846 24.98 12.6 54.7 62 5.6 42.1
00:20 1017 30.03 846 24.98 12.7 54.8 61 5.5 41.9
00:25 1017 30.03 846 24.98 12.8 55 59 5 41
00:30 1017 30.03 846 24.98 12.9 55.2 60 5.3 41.6
00:35 1017 30.03 846 24.98 12.9 55.2 62 5.8 42.4
00:40 1017 30.03 846 24.98 12.8 55 63 5.8 42.5
00:45 1017 30.03 846 24.98 12.7 54.9 64 6.1 42.9
00:50 1017 30.03 846 24.98 12.4 54.2 66 6.1 43
00:55 1017 30.03 846 24.98 12 53.6 65 5.7 42.3
01:00 1017 30.03 846 24.98 12.1 53.7 66 6 42.8
01:05 1017 30.03 846 24.98 11.7 53 70 6.4 43.5
01:10 1017 30.03 846 24.98 11.4 52.6 67 5.6 42
01:15 1017 30.03 846 24.98 11.5 52.7 66 5.5 41.8
01:20 1017 30.03 846 24.98 11.4 52.5 67 5.5 41.8
01:25 1017 30.03 846 24.98 11.3 52.4 66 5.2 41.4
01:30 1017 30.03 846 24.98 11.3 52.4 66 5.3 41.6
01:35 1017 30.03 846 24.98 11.2 52.1 67 5.3 41.5
01:40 1017 30.03 846 24.98 11.1 51.9 67 5.2 41.3
01:45 1017 30.03 846 24.98 11.2 52.2 66 5.1 41.2
01:50 1017 30.03 846 24.98 11.2 52.2 65 5 40.9
01:55 1017 30.03 846 24.98 11.4 52.5 64 4.9 40.9
02:00 1017 30.03 846 24.98 11.4 52.5 64 4.8 40.7
02:05 1017 30.03 846 24.98 11.2 52.2 66 5.2 41.3
02:10 1017 30.03 846 24.98 10.8 51.5 68 5.3 41.5
02:15 1017 30.03 846 24.98 10.7 51.2 69 5.2 41.3
02:20 1017 30.03 846 24.98 10.7 51.3 68 5 41
02:25 1017 30.03 846 24.98 10.9 51.6 66 4.8 40.6
02:30 1017 30.03 846 24.98 10.9 51.6 67 5.1 41.1
02:35 1017 30.03 846 24.98 10.8 51.4 67 4.9 40.9
02:40 1017 30.03 846 24.98 10.6 51.1 68 5 41
02:45 1017 30.03 846 24.98 10.4 50.8 69 4.9 40.9
02:50 1017 30.03 846 24.98 10.4 50.6 68 4.8 40.7
02:55 1017 30.03 846 24.98 10.4 50.7 68 4.7 40.4
03:00 1017 30.03 846 24.98 10.3 50.5 68 4.7 40.5
03:05 1017 30.03 846 24.98 10.1 50.2 68 4.6 40.3
03:10 1017 30.03 846 24.98 10.2 50.3 66 4.2 39.6
03:15 1017 30.03 846 24.98 10.2 50.4 67 4.5 40.1
03:20 1017 30.03 846 24.98 10.1 50.2 68 4.5 40
03:25 1017 30.03 846 24.98 10 49.9 68 4.3 39.8
03:30 1017 30.03 846 24.98 9.9 49.8 68 4.3 39.7
03:35 1017 30.03 846 24.98 9.9 49.7 68 4.3 39.7
03:40 1017 30.03 846 24.98 9.8 49.6 67 4 39.2
03:45 1017 30.03 846 24.98 9.9 49.8 67 4 39.2
03:50 1017 30.03 846 24.98 10.1 50.1 65 3.9 39.1
03:55 1017 30.03 846 24.98 10.1 50.1 65 3.8 38.9
04:00 1017 30.03 847 25.01 10.1 50.3 65 3.9 39
04:05 1017 30.03 847 25.01 10.2 50.4 64 3.8 38.9
04:10 1017 30.03 847 25.01 10.4 50.7 64 3.8 38.9
04:15 1018 30.06 847 25.01 10.1 50.2 67 4.3 39.7
04:20 1018 30.06 847 25.01 9.7 49.4 69 4.3 39.8
04:25 1018 30.06 847 25.01 9.6 49.4 68 4 39.1
04:30 1018 30.06 847 25.01 9.7 49.5 66 3.8 38.8
04:35 1018 30.06 847 25.01 9.8 49.7 66 3.8 38.9
04:40 1018 30.06 847 25.01 9.9 49.9 65 3.7 38.7
04:45 1018 30.06 847 25.01 9.7 49.5 68 4.2 39.6
04:50 1018 30.06 847 25.01 9.2 48.6 69 3.9 39.1
04:55 1018 30.06 847 25.01 9 48.2 70 3.9 39
05:00 1018 30.06 847 25.01 8.7 47.7 72 4 39.2
05:05 1018 30.06 847 25.01 8.3 47 74 3.9 39.1
05:10 1018 30.06 847 25.01 8.2 46.8 73 3.8 38.8
05:15 1018 30.06 847 25.01 8.1 46.6 75 3.9 39.1
05:20 1018 30.06 847 25.01 7.9 46.2 74 3.6 38.4
05:25 1018 30.06 847 25.01 7.9 46.2 74 3.6 38.5
05:30 1018 30.06 847 25.01 7.8 46 74 3.4 38.1
05:35 1018 30.06 847 25.01 7.8 46 73 3.2 37.8
05:40 1018 30.06 848 25.04 7.7 45.9 74 3.4 38.1
05:45 1018 30.06 848 25.04 7.7 45.8 74 3.4 38.1
05:50 1019 30.09 848 25.04 7.6 45.7 72 3 37.4
05:55 1019 30.09 848 25.04 8.1 46.6 70 3 37.4
06:00 1019 30.09 848 25.04 8.3 46.9 69 3 37.5
06:05 1019 30.09 848 25.04 8.3 46.9 69 3 37.4
06:10 1019 30.09 848 25.04 8.2 46.8 71 3.2 37.7
06:15 1019 30.09 848 25.04 8.1 46.6 70 3 37.4
06:20 1019 30.09 848 25.04 8.3 47 70 3.2 37.7
06:25 1019 30.09 848 25.04 8.4 47.1 69 3.1 37.6
06:30 1019 30.09 848 25.04 8.6 47.5 69 3.2 37.8
06:35 1019 30.09 848 25.04 8.4 47.2 69 3.2 37.7
06:40 1019 30.09 848 25.04 8.4 47.2 70 3.2 37.8
06:45 1019 30.09 848 25.04 8.7 47.7 69 3.3 37.9
06:50 1019 30.09 848 25.04 9 48.1 68 3.3 38
06:55 1019 30.09 848 25.04 9.2 48.5 67 3.4 38.2
07:00 1019 30.09 848 25.04 9.8 49.6 64 3.3 38
07:05 1019 30.09 848 25.04 10.1 50.1 65 3.7 38.7
07:10 1019 30.09 848 25.04 10.2 50.3 64 3.8 38.8
07:15 1019 30.09 848 25.04 10.6 51.1 64 4.1 39.4
07:20 1019 30.09 848 25.04 11.2 52.1 62 4.3 39.7
07:25 1019 30.09 848 25.04 11.7 53.1 61 4.5 40.2
07:30 1019 30.09 848 25.04 12.3 54.1 59 4.5 40.2
07:35 1019 30.09 848 25.04 12.5 54.4 58 4.4 39.9
07:40 1019 30.09 848 25.04 12.8 55 57 4.4 39.9
07:45 1019 30.09 848 25.04 13 55.4 57 4.7 40.5
07:50 1019 30.09 848 25.04 13.8 56.8 52 4.1 39.5
07:55 1019 30.09 848 25.04 14.5 58.1 50 4.3 39.7
08:00 1019 30.09 848 25.04 14.8 58.7 49 4.4 39.9
08:05 1019 30.09 849 25.07 15 59 48 4.1 39.3
08:10 1019 30.09 849 25.07 15.2 59.4 47 3.9 39
08:15 1019 30.09 849 25.07 15.1 59.3 48 4.2 39.5
08:20 1019 30.09 849 25.07 14.8 58.7 49 4.4 39.9
08:25 1020 30.12 849 25.07 14.2 57.6 49 3.8 38.9
08:30 1020 30.12 849 25.07 14.6 58.3 49 4 39.2
08:35 1020 30.12 849 25.07 14 57.1 51 4 39.2
08:40 1020 30.12 849 25.07 14.2 57.5 50 3.9 39
08:45 1020 30.12 849 25.07 14.7 58.4 45 3.1 37.5
08:50 1020 30.12 849 25.07 15.1 59.2 45 3.3 38
08:55 1020 30.12 849 25.07 15.8 60.4 43 3.2 37.7
09:00 1020 30.12 849 25.07 16.3 61.3 40 2.7 36.8
09:05 1020 30.12 849 25.07 16.2 61.1 41 2.9 37.2
09:10 1020 30.12 849 25.07 15.9 60.6 42 3 37.4
09:15 1020 30.12 849 25.07 16.1 61 40 2.7 36.9
09:20 1020 30.12 849 25.07 16.3 61.4 40 3 37.3
09:25 1020 30.12 849 25.07 16.4 61.4 40 3 37.3
09:30 1020 30.12 849 25.07 16.8 62.3 39 3 37.3
09:35 1020 30.12 849 25.07 17.6 63.7 38 3.2 37.7
09:40 1020 30.12 849 25.07 17.8 64 38 3.3 37.9
09:45 1020 30.12 849 25.07 18.2 64.7 37 3.5 38.3
09:50 1020 30.12 849 25.07 18.1 64.7 37 3.5 38.3
09:55 1020 30.12 849 25.07 16.8 62.2 41 3.7 38.7
10:00 1020 30.12 849 25.07 17.2 62.9 40 3.5 38.3
10:05 1020 30.12 849 25.07 17.7 63.9 37 3.1 37.6
10:10 1020 30.12 849 25.07 18.4 65.1 38 4 39.2
10:15 1020 30.12 849 25.07 18.4 65.1 37 3.5 38.3
10:20 1020 30.12 849 25.07 18.2 64.8 35 2.8 37.1
10:25 1020 30.12 849 25.07 18.5 65.2 36 3.1 37.5
10:30 1020 30.12 849 25.07 17.8 64 39 3.8 38.8
10:35 1020 30.12 849 25.07 17.8 64.1 38 3.3 38
10:40 1020 30.12 849 25.07 18.7 65.6 36 3.6 38.4
10:45 1020 30.12 849 25.07 19 66.2 33 2.3 36.2
10:50 1020 30.12 849 25.07 19.2 66.5 32 2.3 36.2
10:55 1020 30.12 849 25.07 19.1 66.4 32 2.1 35.7
11:00 1020 30.12 849 25.07 19.1 66.3 35 3.3 38
11:05 1020 30.12 849 25.07 19 66.1 34 2.7 36.8
11:10 1020 30.12 849 25.07 19 66.1 33 2.6 36.6
11:15 1020 30.12 849 25.07 19 66.1 34 2.8 37
11:20 1020 30.12 849 25.07 18.3 65 32 1.7 35
11:25 1020 30.12 849 25.07 18.8 65.8 34 2.5 36.5
11:30 1020 30.12 849 25.07 19.4 66.9 33 2.9 37.3
11:35 1020 30.12 849 25.07 19.3 66.8 34 3.4 38.1
11:40 1020 30.12 849 25.07 19.8 67.6 33 3.2 37.8
11:45 1020 30.12 849 25.07 19.9 67.9 31 2.5 36.5
11:50 1020 30.12 849 25.07 20.2 68.3 32 3 37.4
11:55 1020 30.12 849 25.07 20 68 30 2.3 36.1
12:00 1020 30.12 849 25.07 20.6 69 30 2.7 36.8
12:05 1020 30.12 849 25.07 20.7 69.2 31 3.3 37.9
12:10 1020 30.12 849 25.07 20.1 68.2 30 2.2 36
12:15 1020 30.12 849 25.07 20.5 69 30 2.6 36.7
12:20 1020 30.12 849 25.07 19.8 67.6 32 2.6 36.7
12:25 1020 30.12 849 25.07 20.4 68.6 29 1.8 35.3
12:30 1020 30.12 849 25.07 20.4 68.6 30 2.4 36.4
12:35 1020 30.12 849 25.07 20.1 68.2 29 1.9 35.4
12:40 1020 30.12 849 25.07 20.6 69.2 28 1.8 35.2
12:45 1020 30.12 849 25.07 21.3 70.3 27 1.7 35.1
12:50 1020 30.12 849 25.07 21.3 70.3 27 1.7 35
12:55 1020 30.12 849 25.07 21.1 70 26 0.9 33.6
13:00 1020 30.12 849 25.07 20.6 69.1 28 1.7 35.1
13:05 1020 30.12 849 25.07 20.7 69.2 28 1.8 35.3
13:10 1020 30.12 849 25.07 21.2 70.1 28 2.1 35.7
13:15 1020 30.12 849 25.07 21 69.7 28 2 35.5
13:20 1020 30.12 849 25.07 21.3 70.3 26 1.4 34.5
13:25 1020 30.12 849 25.07 22.2 72 26 2.2 36
13:30 1020 30.12 849 25.07 21.5 70.7 27 2 35.6
13:35 1020 30.12 849 25.07 20.6 69.1 27 1.1 33.9
13:40 1020 30.12 849 25.07 20.7 69.2 28 1.6 34.9
13:45 1020 30.12 849 25.07 20.4 68.7 29 2.2 35.9
13:50 1020 30.12 849 25.07 21.6 70.9 27 1.9 35.5
13:55 1020 30.12 849 25.07 22.3 72.1 27 2.3 36.2
14:00 1019 30.09 849 25.07 22.2 72 29 3.4 38.1
14:05 1019 30.09 849 25.07 22.3 72.1 19 -2.2 28
14:10 1019 30.09 849 25.07 23 73.4 18 -2.4 27.6
14:15 1019 30.09 849 25.07 23 73.3 20 -0.7 30.7
14:20 1019 30.09 849 25.07 22.4 72.4 27 2.7 36.9
14:25 1019 30.09 849 25.07 22.1 71.7 21 -1.4 29.5
14:30 1019 30.09 848 25.04 22.7 72.8 22 0.2 32.4
14:35 1019 30.09 848 25.04 22.5 72.5 23 0.8 33.4
14:40 1019 30.09 848 25.04 22.7 72.8 23 0.7 33.3
14:45 1019 30.09 848 25.04 22.4 72.4 24 1.1 34
14:50 1019 30.09 848 25.04 22 71.5 24 0.8 33.5
14:55 1019 30.09 848 25.04 22.1 71.7 24 0.7 33.3
15:00 1019 30.09 848 25.04 22 71.6 22 -0.4 31.2
15:05 1019 30.09 848 25.04 22.2 72 22 -0.5 31.1
15:10 1019 30.09 848 25.04 22.5 72.6 25 1.6 34.9
15:15 1019 30.09 848 25.04 22.6 72.7 25 1.8 35.2
15:20 1019 30.09 848 25.04 22.4 72.3 26 1.9 35.4
15:25 1019 30.09 848 25.04 22.9 73.3 26 2.7 36.9
15:30 1019 30.09 848 25.04 23 73.3 23 0.7 33.2
15:35 1019 30.09 848 25.04 23 73.3 24 1.3 34.4
15:40 1019 30.09 848 25.04 23.4 74.1 18 -1.9 28.6
15:45 1019 30.09 848 25.04 23.5 74.2 18 -2 28.3
15:50 1019 30.09 848 25.04 23.3 73.9 17 -2.9 26.8
15:55 1019 30.09 848 25.04 23.3 73.9 15 -4.4 24.1
16:00 1019 30.09 848 25.04 23.4 74.1 20 -0.4 31.3
16:05 1019 30.09 848 25.04 23.6 74.5 15 -4.5 23.9
16:10 1019 30.09 848 25.04 23.6 74.5 17 -2.6 27.4
16:15 1019 30.09 848 25.04 23.7 74.7 21 0.2 32.3
16:20 1019 30.09 848 25.04 23.2 73.7 19 -1.4 29.5
16:25 1019 30.09 848 25.04 23.2 73.7 19 -1.8 28.8
16:30 1019 30.09 848 25.04 23.2 73.7 20 -1.2 29.9
16:35 1019 30.09 848 25.04 22.8 73 21 -0.4 31.2
16:40 1019 30.09 848 25.04 22.7 72.9 22 -0.1 31.8
16:45 1019 30.09 848 25.04 23.6 74.4 20 -0.2 31.6
16:50 1019 30.09 848 25.04 23.9 74.9 21 0.1 32.2
16:55 1019 30.09 848 25.04 23.8 74.8 21 0.4 32.6
17:00 1019 30.09 848 25.04 23.7 74.6 21 0.2 32.4
17:05 1019 30.09 848 25.04 23.6 74.5 21 0.4 32.7
17:10 1019 30.09 848 25.04 23.6 74.5 21 0.5 33
17:15 1019 30.09 848 25.04 23.3 74 22 0.9 33.6
17:20 1019 30.09 848 25.04 23.1 73.6 23 0.8 33.4
17:25 1019 30.09 848 25.04 23.1 73.6 21 -0.4 31.3
17:30 1019 30.09 848 25.04 23.4 74.1 21 0.1 32.3
17:35 1019 30.09 848 25.04 22.6 72.6 22 -0.1 31.8
17:40 1019 30.09 849 25.07 23 73.5 21 -0 32
17:45 1019 30.09 849 25.07 23.2 73.8 21 0.1 32.1
17:50 1019 30.09 848 25.04 23 73.3 22 0.3 32.5
17:55 1019 30.09 848 25.04 23.1 73.6 20 -0.8 30.5
18:00 1019 30.09 848 25.04 23.4 74.1 21 -0 31.9
18:05 1019 30.09 849 25.07 23.4 74.2 20 -0.7 30.7
18:10 1019 30.09 849 25.07 23.4 74.1 21 0 32
18:15 1019 30.09 849 25.07 23.1 73.5 20 -0.8 30.6
18:20 1019 30.09 849 25.07 23.1 73.5 20 -1.1 30
18:25 1019 30.09 849 25.07 23.4 74 19 -1.3 29.6
18:30 1019 30.09 849 25.07 23.2 73.7 17 -2.7 27.1
18:35 1019 30.09 849 25.07 23.4 74.2 18 -2.1 28.2
18:40 1019 30.09 849 25.07 23.4 74.1 17 -3.1 26.4
18:45 1019 30.09 849 25.07 23.6 74.5 17 -2.4 27.7
18:50 1019 30.09 849 25.07 23.5 74.2 19 -1.3 29.6
18:55 1019 30.09 849 25.07 23.1 73.7 18 -2.6 27.3
19:00 1019 30.09 849 25.07 23.2 73.7 20 -1.1 30
19:05 1019 30.09 849 25.07 23.2 73.8 18 -2.5 27.5
19:10 1019 30.09 849 25.07 23.3 74 16 -3.7 25.4
19:15 1019 30.09 849 25.07 23.2 73.8 17 -2.6 27.3
19:20 1019 30.09 849 25.07 23.2 73.8 19 -1.8 28.8
19:25 1019 30.09 849 25.07 23 73.4 18 -2.1 28.2
19:30 1019 30.09 849 25.07 22.6 72.7 20 -1.1 30
19:35 1020 30.12 849 25.07 22.3 72.2 20 -1.2 29.9
19:40 1020 30.12 849 25.07 22.2 72 20 -1.4 29.5
19:45 1020 30.12 849 25.07 22 71.5 22 -0.5 31.1
19:50 1020 30.12 849 25.07 21.7 71.1 23 -0.2 31.7
19:55 1020 30.12 849 25.07 21.6 70.9 24 0.6 33.1
20:00 1020 30.12 849 25.07 21.4 70.5 25 0.8 33.5
20:05 1020 30.12 849 25.07 21.2 70.2 25 0.8 33.5
20:10 1020 30.12 849 25.07 21 69.9 26 0.7 33.3
20:15 1020 30.12 849 25.07 20.9 69.5 28 1.9 35.4
20:20 1020 30.12 849 25.07 20.5 68.9 27 1.2 34.2
20:25 1020 30.12 849 25.07 20.4 68.7 28 1.3 34.3
20:30 1020 30.12 849 25.07 20.3 68.6 27 1 33.9
20:35 1020 30.12 849 25.07 20.2 68.3 28 1.4 34.4
20:40 1020 30.12 849 25.07 20 68.1 27 0.9 33.6
20:45 1020 30.12 849 25.07 19.9 67.7 28 1 33.8
20:50 1020 30.12 849 25.07 19.7 67.4 28 0.9 33.7
20:55 1020 30.12 849 25.07 19.5 67.2 27 0.4 32.7
21:00 1020 30.12 849 25.07 19.2 66.5 33 2.7 36.8
21:05 1020 30.12 849 25.07 18.4 65.2 33 2.1 35.9
21:10 1020 30.12 849 25.07 18.3 64.9 34 2.2 36
21:15 1020 30.12 849 25.07 18.3 64.9 32 1.5 34.7
21:20 1020 30.12 849 25.07 18.1 64.6 34 2.3 36.2
21:25 1020 30.12 849 25.07 17.8 64 38 3.2 37.8
21:30 1020 30.12 849 25.07 17.8 64.1 32 1 33.9
21:35 1020 30.12 849 25.07 17.7 63.8 31 0.3 32.6
21:40 1020 30.12 849 25.07 17.6 63.7 33 1.2 34.2
21:45 1020 30.12 850 25.1 17.3 63.2 34 1.3 34.3
21:50 1020 30.12 850 25.1 17.2 63 34 1.4 34.5
21:55 1021 30.15 850 25.1 17.1 62.8 35 1.6 34.9
22:00 1021 30.15 850 25.1 16.8 62.3 44 4.5 40.2
22:05 1021 30.15 850 25.1 15.8 60.4 41 2.7 36.9
22:10 1021 30.15 850 25.1 15.4 59.8 49 4.7 40.5
22:15 1021 30.15 850 25.1 15.1 59.3 44 3.2 37.8
22:20 1021 30.15 850 25.1 14.6 58.3 45 3 37.4
22:25 1021 30.15 850 25.1 14.2 57.5 47 3 37.4
22:30 1021 30.15 850 25.1 13.5 56.4 49 3.2 37.8
22:35 1021 30.15 850 25.1 13.7 56.6 46 2.2 35.9
22:40 1021 30.15 850 25.1 13.9 56.9 46 2.4 36.4
22:45 1021 30.15 850 25.1 13.8 56.9 45 2.1 35.8
22:50 1021 30.15 851 25.13 13.7 56.7 47 2.6 36.7
22:55 1021 30.15 851 25.13 13.6 56.4 49 3.2 37.7
23:00 1021 30.15 851 25.13 13.5 56.3 50 3.3 38
23:05 1022 30.18 851 25.13 13.7 56.6 50 3.5 38.3
23:10 1022 30.18 851 25.13 13.4 56.2 50 3.4 38.1
23:15 1022 30.18 851 25.13 13.2 55.8 50 3 37.4
23:20 1022 30.18 851 25.13 13.5 56.3 49 3.1 37.5
23:25 1022 30.18 851 25.13 13.2 55.7 50 3.2 37.8
23:30 1022 30.18 851 25.13 13.2 55.8 49 2.8 37
23:35 1022 30.18 851 25.13 13.4 56.1 48 2.6 36.6
23:40 1022 30.18 851 25.13 13.5 56.3 50 3.3 37.9
23:45 1022 30.18 851 25.13 13 55.5 49 2.6 36.6
23:50 1022 30.18 851 25.13 13.1 55.6 47 2.2 36
23:55 1022 30.18 851 25.13 13.1 55.6 49 2.9 37.1
24:00 1022 30.18 851 25.13 12.4 54.3 54 3.3 37.9